Latest Weather Observations for Whyalla

IDS60801

Issued at 11:31 am CST Wednesday 5 August 2015 (issued every 30 minutes, with the page automatically refreshed every 10 minutes)

About weather observations | Map of weather stations | Latest weather observations for SA | Other Formats
Station Details ID: 018120 Name: WHYALLA AERO Lat: -33.05 Lon: 137.52 Height: 6.5 m
Data from the previous 72 hours. | See also: Recent months at Whyalla
Date/Time
CST
Temp
°C
App
Temp
°C
Dew
Point
Rel
Hum
%
Delta-T
°C
Wind Press
QNH
hPa
Press
MSL
hPa
Rain
since 9 am
mm
Dir
 
Spd
km/h
Gust
km/h
Spd
kts
Gust
kts
05/11:30am 14.8 9.0 7.8 63 3.5 WSW 28 37 15 20 1024.0 1024.0 0.0
05/11:00am 14.9 8.8 8.2 64 3.3 WSW 30 43 16 23 1024.3 1024.3 0.0
05/10:30am 14.3 9.7 8.0 66 3.1 WSW 22 35 12 19 1024.5 1024.5 0.0
05/10:00am 13.6 9.0 8.2 70 2.7 WSW 22 33 12 18 1024.5 1024.5 0.0
05/09:30am 12.5 8.4 8.0 74 2.2 WSW 19 24 10 13 1024.3 1024.3 0.0
05/09:00am 11.2 7.1 7.9 80 1.6 W 19 22 10 12 1024.5 1024.5 0.0
05/08:30am 10.1 6.3 7.5 84 1.2 WNW 17 24 9 13 1024.5 1024.5 0.0
05/08:00am 8.6 5.1 7.2 91 0.7 WNW 15 19 8 10 1024.2 1024.2 0.0
05/07:30am 7.0 3.3 6.4 96 0.3 WNW 15 17 8 9 1024.0 1024.0 0.0
05/07:00am 7.0 3.4 6.6 97 0.2 NW 15 17 8 9 1024.0 1024.0 0.0
05/06:30am 7.5 4.4 7.2 98 0.1 NW 13 15 7 8 1023.8 1023.8 0.0
05/06:00am 7.3 4.1 7.0 98 0.1 NW 13 15 7 8 1023.7 1023.7 0.0
05/05:30am 7.5 4.4 7.2 98 0.1 NW 13 17 7 9 1023.5 1023.5 0.0
05/05:00am 7.9 4.8 7.3 96 0.3 NW 13 17 7 9 1023.5 1023.5 0.0
05/04:30am 8.4 5.1 8.0 97 0.2 WNW 15 20 8 11 1023.6 1023.6 0.0
05/04:00am 8.5 4.8 7.9 96 0.3 WNW 17 20 9 11 1023.7 1023.7 0.0
05/03:34am 8.3 4.9 7.7 96 0.3 WNW 15 22 8 12 1023.8 1023.8 0.0
05/03:30am 8.3 4.5 7.7 96 0.3 WNW 17 19 9 10 1023.7 1023.7 0.0
05/03:15am 8.4 4.5 7.2 92 0.6 WNW 17 20 9 11 1023.8 1023.8 0.0
05/03:00am 8.6 4.7 6.9 89 0.8 WNW 17 26 9 14 1023.9 1023.9 0.0
05/02:30am 9.2 5.4 7.5 89 0.8 WNW 17 26 9 14 1024.0 1024.0 0.0
05/02:00am 8.3 4.7 6.9 91 0.6 NW 15 19 8 10 1024.5 1024.5 0.0
05/01:30am 7.9 3.9 6.7 92 0.5 NW 17 20 9 11 1024.8 1024.8 0.0
05/01:00am 7.8 4.2 6.7 93 0.5 NW 15 20 8 11 1024.8 1024.8 0.0
05/12:30am 7.2 3.8 6.1 93 0.5 NNW 13 17 7 9 1025.1 1025.1 0.0
05/12:00am 7.9 4.2 6.2 89 0.8 NW 15 17 8 9 1025.5 1025.5 0.0
 
Date/Time
CST
Temp
°C
App
Temp
°C
Dew
Point
Rel
Hum
%
Delta-T
°C
Wind Press
QNH
hPa
Press
MSL
hPa
Rain
since 9 am
mm
Dir
 
Spd
km/h
Gust
km/h
Spd
kts
Gust
kts
04/11:30pm 8.5 5.2 6.6 88 0.9 NW 13 17 7 9 1025.8 1025.8 0.0
04/11:00pm 8.3 5.0 6.6 89 0.8 NW 13 17 7 9 1025.9 1025.9 0.0
04/10:30pm 8.5 4.8 6.5 87 0.9 NW 15 19 8 10 1026.0 1026.0 0.0
04/10:00pm 9.1 6.2 6.5 84 1.2 NW 11 13 6 7 1026.1 1026.1 0.0
04/09:30pm 9.9 7.2 7.2 83 1.3 WNW 11 13 6 7 1026.3 1026.3 0.0
04/09:00pm 10.4 7.6 7.1 80 1.6 W 11 13 6 7 1026.3 1026.3 0.0
04/08:30pm 9.9 7.4 6.6 80 1.5 W 9 11 5 6 1026.2 1026.2 0.0
04/08:00pm 11.1 8.6 6.5 73 2.2 W 9 11 5 6 1026.2 1026.2 0.0
04/07:30pm 12.2 8.6 6.7 69 2.6 WSW 15 22 8 12 1026.3 1026.3 0.0
04/07:00pm 11.4 9.6 8.1 80 1.6 NNW 7 9 4 5 1026.3 1026.3 0.0
04/06:30pm 11.8 10.2 7.9 77 1.9 N 6 9 3 5 1026.1 1026.1 0.0
04/06:00pm 11.7 10.1 8.2 79 1.7 NNE 6 7 3 4 1026.3 1026.3 0.0
04/05:30pm 11.9 10.3 8.0 77 1.9 E 6 7 3 4 1026.1 1026.1 0.0
04/05:00pm 12.1 10.5 7.8 75 2.1 E 6 9 3 5 1026.1 1026.1 0.0
04/04:30pm 12.2 10.0 7.7 74 2.2 SE 9 15 5 8 1026.1 1026.1 0.0
04/04:00pm 12.8 10.4 8.5 75 2.1 ESE 11 15 6 8 1026.1 1026.1 0.0
04/03:30pm 12.3 9.4 8.2 76 2.0 SE 13 17 7 9 1026.4 1026.4 0.0
04/03:00pm 12.4 9.0 7.7 73 2.3 SE 15 20 8 11 1026.4 1026.4 0.0
04/02:30pm 12.4 9.0 7.5 72 2.4 ESE 15 19 8 10 1026.6 1026.6 0.0
04/02:00pm 12.9 10.1 7.1 68 2.8 SSE 11 17 6 9 1026.7 1026.7 0.0
04/01:30pm 12.6 9.6 7.9 73 2.3 SE 13 17 7 9 1026.9 1026.9 0.0
04/01:00pm 13.3 10.9 8.6 73 2.4 ESE 11 15 6 8 1027.2 1027.2 0.0
04/12:30pm 13.0 10.8 7.7 70 2.6 SE 9 15 5 8 1027.5 1027.5 0.0
04/12:00pm 13.1 9.7 6.0 62 3.3 SW 13 20 7 11 1028.2 1028.2 0.0
04/11:30am 13.1 10.3 7.1 67 2.9 WSW 11 17 6 9 1028.8 1028.8 0.0
04/11:00am 12.0 9.6 7.1 72 2.4 WSW 9 15 5 8 1029.0 1029.0 0.0
04/10:30am 11.9 9.8 8.4 79 1.7 NW 9 17 5 9 1029.3 1029.3 0.0
04/10:00am 10.2 8.6 7.8 85 1.2 NW 6 9 3 5 1029.5 1029.5 0.0
04/09:30am 8.4 6.4 7.0 91 0.6 NNW 7 9 4 5 1029.6 1029.6 0.0
04/09:00am 7.7 5.2 6.6 93 0.5 NW 9 13 5 7 1029.5 1029.5 0.6
04/08:30am 6.0 2.9 5.6 97 0.2 NNW 11 13 6 7 1029.3 1029.3 0.6
04/08:00am 5.1 2.6 5.0 99 0.0 NNW 7 7 4 4 1029.2 1029.2 0.6
04/07:30am 3.7 1.0 3.7 100 0.0 NNW 7 9 4 5 1029.0 1029.0 0.6
04/07:00am 2.0 -1.4 1.9 99 0.0 NW 9 9 5 5 1028.5 1028.5 0.6
04/06:30am 2.7 -0.6 2.7 100 0.0 NNW 9 11 5 6 1028.2 1028.2 0.6
04/06:00am 2.6 -0.7 2.3 98 0.1 NW 9 11 5 6 1028.0 1028.0 0.4
04/05:30am 3.5 0.7 3.4 99 0.0 NNW 7 9 4 5 1027.9 1027.9 0.4
04/05:00am 3.7 0.6 3.6 99 0.0 NNW 9 11 5 6 1027.9 1027.9 0.4
04/04:30am 3.8 0.7 3.5 98 0.1 NNW 9 11 5 6 1028.1 1028.1 0.4
04/04:00am 5.0 1.4 4.9 99 0.0 NW 13 15 7 8 1028.3 1028.3 0.4
04/03:30am 4.1 1.1 4.0 99 0.0 NW 9 11 5 6 1027.9 1027.9 0.4
04/03:00am 4.6 2.0 4.3 98 0.1 NNW 7 9 4 5 1027.9 1027.9 0.4
04/02:30am 5.1 2.6 5.0 99 0.0 NW 7 9 4 5 1028.1 1028.1 0.4
04/02:00am 5.4 2.2 5.1 98 0.1 WNW 11 13 6 7 1028.2 1028.2 0.4
04/01:30am 5.9 3.6 5.6 98 0.1 WSW 7 11 4 6 1028.2 1028.2 0.4
04/01:00am 6.6 4.0 6.3 98 0.1 W 9 11 5 6 1028.5 1028.5 0.4
04/12:30am 7.0 4.1 6.7 98 0.1 W 11 13 6 7 1028.5 1028.5 0.4
04/12:00am 7.0 4.1 6.7 98 0.1 WSW 11 13 6 7 1028.6 1028.6 0.4
 
Date/Time
CST
Temp
°C
App
Temp
°C
Dew
Point
Rel
Hum
%
Delta-T
°C
Wind Press
QNH
hPa
Press
MSL
hPa
Rain
since 9 am
mm
Dir
 
Spd
km/h
Gust
km/h
Spd
kts
Gust
kts
03/11:30pm 7.7 5.4 7.6 99 0.0 WSW 9 11 5 6 1028.5 1028.5 0.4
03/11:00pm 8.3 6.1 7.9 97 0.2 W 9 11 5 6 1028.5 1028.5 0.4
03/10:39pm 9.1 7.1 8.8 98 0.1 WSW 9 13 5 7 1028.6 1028.6 0.4
03/10:35pm 9.1 6.7 8.8 98 0.1 WSW 11 13 6 7 1028.7 1028.7 0.4
03/10:30pm 9.1 7.2 9.0 99 0.0 WSW 9 13 5 7 1028.7 1028.7 0.4
03/10:17pm 8.8 6.4 8.5 98 0.1 SW 11 13 6 7 1028.7 1028.7 0.2
03/10:08pm 8.6 6.1 8.0 96 0.3 WSW 11 13 6 7 1028.7 1028.7 0.0
03/10:00pm 8.4 6.1 7.5 94 0.4 W 9 11 5 6 1028.6 1028.6 0.0
03/09:30pm 8.8 6.2 7.7 93 0.5 W 11 13 6 7 1028.7 1028.7 0.0
03/09:00pm 8.5 5.9 7.6 94 0.4 WSW 11 13 6 7 1028.6 1028.6 0.0
03/08:37pm 9.2 6.9 7.6 90 0.8 WSW 9 9 5 5 1028.5 1028.5 0.0
03/08:30pm 9.4 7.2 7.8 90 0.8 SW 9 11 5 6 1028.5 1028.5 0.0
03/08:18pm 9.9 8.2 8.2 89 0.8 SW 7 7 4 4 1028.4 1028.4 0.0
03/08:00pm 10.2 7.8 8.6 90 0.8 SW 11 13 6 7 1028.3 1028.3 0.0
03/07:30pm 10.9 7.7 8.5 85 1.2 SSW 15 20 8 11 1028.2 1028.2 0.0
03/07:00pm 10.8 7.3 8.6 86 1.1 S 17 24 9 13 1028.0 1028.0 0.0
03/06:30pm 11.2 7.7 8.9 86 1.1 S 17 22 9 12 1027.8 1027.8 0.0
03/06:00pm 11.7 8.2 8.9 83 1.4 S 17 24 9 13 1027.4 1027.4 0.0
03/05:30pm 12.2 7.8 8.9 80 1.6 S 22 28 12 15 1027.2 1027.2 0.0
03/05:00pm 12.1 7.9 8.4 78 1.8 S 20 32 11 17 1027.0 1027.0 0.0
03/04:30pm 12.6 8.2 9.1 79 1.7 S 22 30 12 16 1026.8 1026.8 0.0
03/04:00pm 12.6 7.2 9.4 81 1.6 S 28 37 15 20 1026.9 1026.9 0.0
03/03:30pm 12.6 5.7 8.7 77 1.9 SSW 35 44 19 24 1026.7 1026.7 0.0
03/03:00pm 13.9 8.4 9.3 74 2.3 S 28 37 15 20 1026.2 1026.2 0.0
03/02:30pm 13.8 9.2 9.5 75 2.2 S 24 32 13 17 1026.1 1026.1 0.0
03/02:00pm 14.1 9.8 9.5 74 2.4 S 22 30 12 16 1026.2 1026.2 0.0
03/01:30pm 14.2 9.4 10.4 78 2.0 S 26 35 14 19 1026.4 1026.4 0.0
03/01:00pm 13.2 8.6 9.6 79 1.8 S 24 33 13 18 1026.6 1026.6 0.0
03/12:30pm 13.5 9.7 9.7 78 1.9 SSE 20 26 11 14 1026.7 1026.7 0.0
03/12:00pm 13.6 9.5 8.7 72 2.4 S 20 32 11 17 1026.9 1026.9 0.0
03/11:30am 13.1 9.2 9.4 78 1.9 SSW 20 32 11 17 1027.4 1027.4 0.0
03/11:00am 14.4 9.6 8.8 69 2.8 SW 24 35 13 19 1027.5 1027.5 0.0
03/10:30am 14.2 10.0 8.2 67 3.0 SW 20 28 11 15 1027.5 1027.5 0.0
03/10:00am 13.7 9.6 8.5 71 2.6 WSW 20 30 11 16 1027.4 1027.4 0.0
03/09:30am 13.0 10.3 9.1 77 2.0 W 13 19 7 10 1027.2 1027.2 0.0
03/09:00am 12.1 8.6 8.6 79 1.7 W 17 20 9 11 1027.2 1027.2 0.0
03/08:30am 10.9 8.1 8.5 85 1.2 WNW 13 17 7 9 1027.0 1027.0 0.0
03/08:00am 9.9 7.4 8.3 90 0.8 NW 11 13 6 7 1026.8 1026.8 0.0
03/07:30am 9.5 6.6 8.3 92 0.6 NW 13 15 7 8 1026.6 1026.6 0.0
03/07:00am 9.3 7.2 8.2 93 0.5 NW 9 11 5 6 1026.1 1026.1 0.0
03/06:30am 9.3 6.8 8.2 93 0.5 WNW 11 13 6 7 1026.1 1026.1 0.0
03/06:00am 9.0 6.9 8.2 95 0.4 WNW 9 11 5 6 1025.8 1025.8 0.0
03/05:30am 8.7 6.2 8.1 96 0.3 NW 11 13 6 7 1025.9 1025.9 0.0
03/05:00am 8.2 5.2 7.6 96 0.3 NNW 13 15 7 8 1025.6 1025.6 0.0
03/04:30am 7.7 4.6 7.1 96 0.3 NW 13 15 7 8 1025.3 1025.3 0.0
03/04:00am 7.9 4.0 7.1 95 0.4 NW 17 19 9 10 1025.2 1025.2 0.0
03/03:30am 8.6 5.2 7.7 94 0.4 NW 15 20 8 11 1025.2 1025.2 0.0
03/03:00am 9.2 6.0 8.3 94 0.4 NW 15 17 8 9 1025.2 1025.2 0.0
03/02:30am 8.8 5.8 7.9 94 0.4 WNW 13 17 7 9 1025.4 1025.4 0.0
03/02:00am 8.9 5.2 8.0 94 0.4 WNW 17 22 9 12 1025.5 1025.5 0.0
03/01:30am 8.4 5.1 8.0 97 0.2 NW 15 19 8 10 1025.6 1025.6 0.0
03/01:00am 8.4 5.0 7.8 96 0.3 NW 15 17 8 9 1025.5 1025.5 0.0
03/12:30am 8.8 6.2 7.9 94 0.4 WNW 11 13 6 7 1025.6 1025.6 0.0
03/12:00am 9.3 6.5 8.4 94 0.4 WNW 13 17 7 9 1025.7 1025.7 0.0
 
Date/Time
CST
Temp
°C
App
Temp
°C
Dew
Point
Rel
Hum
%
Delta-T
°C
Wind Press
QNH
hPa
Press
MSL
hPa
Rain
since 9 am
mm
Dir
 
Spd
km/h
Gust
km/h
Spd
kts
Gust
kts
02/11:30pm 8.5 5.9 7.7 95 0.4 WNW 11 17 6 9 1025.6 1025.6 0.0
02/11:00pm 8.5 5.9 7.6 94 0.4 NW 11 15 6 8 1025.6 1025.6 0.0
02/10:30pm 8.9 5.9 7.8 93 0.5 WNW 13 17 7 9 1025.4 1025.4 0.0
02/10:00pm 9.4 6.5 8.0 91 0.7 WNW 13 15 7 8 1025.4 1025.4 0.0
02/09:30pm 9.8 6.9 8.1 89 0.8 W 13 17 7 9 1025.3 1025.3 0.0
02/09:00pm 10.5 7.7 8.4 87 1.0 WNW 13 17 7 9 1025.1 1025.1 0.0
02/08:30pm 11.5 8.8 8.9 84 1.3 W 13 17 7 9 1024.9 1024.9 0.0
02/08:00pm 11.6 9.2 8.6 82 1.5 W 11 13 6 7 1024.7 1024.7 0.0
02/07:30pm 11.9 9.1 8.7 81 1.6 WSW 13 20 7 11 1024.5 1024.5 0.0
02/07:00pm 12.4 9.7 8.9 79 1.8 WSW 13 17 7 9 1024.2 1024.2 0.0
02/06:30pm 12.1 10.0 8.4 78 1.8 WSW 9 9 5 5 1023.9 1023.9 0.0
02/06:00pm 12.9 10.0 8.2 73 2.3 WSW 13 17 7 9 1023.5 1023.5 0.0
02/05:30pm 13.2 11.7 8.3 72 2.4 S 6 9 3 5 1023.3 1023.3 0.0
02/05:00pm 14.9 10.6 7.0 59 3.9 SW 19 28 10 15 1022.9 1022.9 0.0
02/04:30pm 15.3 10.8 6.3 55 4.3 WSW 19 24 10 13 1022.5 1022.5 0.0
02/04:00pm 15.5 11.4 6.2 54 4.5 SW 17 22 9 12 1022.5 1022.5 0.0
02/03:30pm 15.2 10.8 6.5 56 4.2 WSW 19 28 10 15 1022.4 1022.4 0.0
02/03:00pm 15.5 11.4 6.0 53 4.6 WSW 17 24 9 13 1022.0 1022.0 0.0
02/02:30pm 15.2 10.9 5.4 52 4.6 WSW 17 26 9 14 1021.8 1021.8 0.0
02/02:12pm 15.2 10.2 6.5 56 4.2 SW 22 48 12 26 1021.9 1021.9 0.0
02/02:00pm 14.9 9.7 5.4 53 4.5 SW 22 30 12 16 1021.9 1021.9 0.0
02/01:30pm 15.2 9.4 4.3 48 5.0 SW 24 35 13 19 1022.0 1022.0 0.0
02/01:00pm 14.7 8.5 4.4 50 4.8 SW 26 39 14 21 1022.0 1022.0 0.0
02/12:30pm 14.9 10.1 5.4 53 4.5 SW 20 33 11 18 1022.4 1022.4 0.0
02/12:00pm 14.9 10.4 6.0 55 4.2 SW 19 26 10 14 1022.7 1022.7 0.0

Other Formats:

Comma delimited format used in spreadsheet applications
http://www.bom.gov.au/fwo/IDS60801/IDS60801.95664.axf

JavaScript Object Notation format (JSON) in row-major order
http://www.bom.gov.au/fwo/IDS60801/IDS60801.95664.json